createdAt,value
2018-07-22T00:00:12.695Z,17.50
2018-07-22T00:02:41.919Z,18.43
2018-07-22T00:05:10.918Z,18.27
2018-07-22T00:07:40.101Z,19.07
2018-07-22T00:10:19.684Z,21.40
2018-07-22T00:12:48.778Z,19.30
2018-07-22T00:15:17.898Z,22.47
2018-07-22T00:17:46.920Z,18.07
2018-07-22T00:20:16.016Z,23.93
2018-07-22T00:22:46.051Z,19.83
2018-07-22T00:25:15.749Z,18.53
2018-07-22T00:27:44.748Z,19.50
2018-07-22T00:30:15.285Z,18.63
2018-07-22T00:32:44.243Z,23.40
2018-07-22T00:35:13.457Z,23.10
2018-07-22T00:37:43.460Z,24.47
2018-07-22T00:40:13.040Z,22.30
2018-07-22T00:42:41.898Z,25.93
2018-07-22T00:45:13.418Z,39.50
2018-07-22T00:47:43.676Z,20.90
2018-07-22T00:50:12.714Z,22.03
2018-07-22T00:52:41.805Z,23.17
2018-07-22T00:55:10.703Z,22.57
2018-07-22T00:57:39.603Z,32.87
2018-07-22T01:00:08.870Z,23.40
2018-07-22T01:02:37.577Z,27.33
2018-07-22T01:05:06.861Z,22.10
2018-07-22T01:07:35.584Z,25.03
2018-07-22T01:10:04.330Z,24.27
2018-07-22T01:12:33.120Z,23.10
2018-07-22T01:15:01.775Z,22.63
2018-07-22T01:17:30.507Z,25.40
2018-07-22T01:19:59.235Z,36.27
2018-07-22T01:22:27.922Z,23.93
2018-07-22T01:24:56.547Z,26.83
2018-07-22T01:27:25.151Z,28.23
2018-07-22T01:29:53.710Z,32.23
2018-07-22T01:32:22.276Z,30.03
2018-07-22T01:34:53.252Z,23.00
2018-07-22T01:37:21.892Z,23.30
2018-07-22T01:39:50.501Z,24.80
2018-07-22T01:42:19.236Z,32.30
2018-07-22T01:44:48.004Z,27.97
2018-07-22T01:47:16.676Z,32.83
2018-07-22T01:49:45.379Z,36.17
2018-07-22T01:52:14.245Z,42.53
2018-07-22T01:54:42.943Z,36.77
2018-07-22T01:57:11.538Z,30.13
2018-07-22T01:59:40.232Z,28.53
2018-07-22T02:02:09.273Z,35.27
2018-07-22T02:04:37.957Z,31.27
2018-07-22T02:07:07.222Z,31.43
2018-07-22T02:09:35.832Z,34.70
2018-07-22T02:12:04.448Z,38.97
2018-07-22T02:14:33.184Z,31.40
2018-07-22T02:17:01.764Z,38.90
2018-07-22T02:19:31.495Z,37.40
2018-07-22T02:22:00.307Z,32.13
2018-07-22T02:24:28.946Z,36.20
2018-07-22T02:26:57.639Z,32.83
2018-07-22T02:29:27.579Z,38.87
2018-07-22T02:31:56.211Z,35.07
2018-07-22T02:34:24.911Z,37.00
2018-07-22T02:36:53.624Z,36.97
2018-07-22T02:39:22.357Z,40.47
2018-07-22T02:41:51.012Z,45.13
2018-07-22T02:44:19.591Z,46.20
2018-07-22T02:46:48.288Z,33.60
2018-07-22T02:49:16.998Z,45.13
2018-07-22T02:51:45.732Z,38.23
2018-07-22T02:54:14.436Z,48.03
2018-07-22T02:56:43.108Z,50.37
2018-07-22T02:59:11.833Z,48.23
2018-07-22T03:01:40.692Z,48.20
2018-07-22T03:04:10.058Z,48.90
2018-07-22T03:06:38.732Z,42.57
2018-07-22T03:09:09.168Z,49.50
2018-07-22T03:11:38.072Z,35.07
2018-07-22T03:14:07.430Z,45.60
2018-07-22T03:16:36.213Z,59.00
2018-07-22T03:19:05.083Z,46.90
2018-07-22T03:21:33.976Z,73.07
2018-07-22T03:24:02.703Z,43.03
2018-07-22T03:26:31.335Z,59.47
2018-07-22T03:28:59.959Z,50.33
2018-07-22T03:31:28.872Z,41.30
2018-07-22T03:33:57.592Z,50.73
2018-07-22T03:36:26.233Z,48.93
2018-07-22T03:38:54.960Z,46.93
2018-07-22T03:41:23.578Z,52.23
2018-07-22T03:43:52.209Z,47.80
2018-07-22T03:46:20.984Z,59.57
2018-07-22T03:48:49.599Z,54.93
2018-07-22T03:51:18.345Z,65.07
2018-07-22T03:53:47.113Z,49.97
2018-07-22T03:56:15.800Z,49.33
2018-07-22T03:58:44.596Z,62.60
2018-07-22T04:01:13.345Z,53.20
2018-07-22T04:03:42.132Z,55.60
2018-07-22T04:06:10.824Z,79.93
2018-07-22T04:08:39.385Z,64.50
2018-07-22T04:11:08.080Z,58.17
2018-07-22T04:13:36.715Z,60.27
2018-07-22T04:16:05.415Z,72.77
2018-07-22T04:18:38.154Z,53.67
2018-07-22T04:21:07.171Z,53.07
2018-07-22T04:23:35.713Z,51.07
2018-07-22T04:26:04.330Z,56.03
2018-07-22T04:28:33.057Z,64.70
2018-07-22T04:31:01.848Z,53.30
2018-07-22T04:33:30.556Z,50.17
2018-07-22T04:35:59.283Z,43.23
2018-07-22T04:38:28.048Z,50.83
2018-07-22T04:40:56.713Z,59.27
2018-07-22T04:43:25.543Z,51.13
2018-07-22T04:45:54.133Z,48.73
2018-07-22T04:48:22.751Z,57.63
2018-07-22T04:50:51.464Z,49.10
2018-07-22T04:53:20.074Z,57.60
2018-07-22T04:55:49.114Z,47.97
2018-07-22T04:58:18.256Z,49.83
2018-07-22T05:00:47.456Z,43.47
2018-07-22T05:03:16.323Z,58.10
2018-07-22T05:05:45.105Z,43.30
2018-07-22T05:08:13.867Z,51.43
2018-07-22T05:10:42.585Z,46.63
2018-07-22T05:13:15.255Z,42.70
2018-07-22T05:15:43.952Z,40.40
2018-07-22T05:18:12.583Z,47.30
2018-07-22T05:20:41.388Z,45.87
2018-07-22T05:23:10.154Z,58.33
2018-07-22T05:25:38.726Z,41.33
2018-07-22T05:28:07.564Z,42.17
2018-07-22T05:30:36.185Z,42.87
2018-07-22T05:33:04.829Z,41.97
2018-07-22T05:35:33.388Z,38.77
2018-07-22T05:38:01.997Z,41.87
2018-07-22T05:40:30.977Z,37.37
2018-07-22T05:42:59.684Z,37.60
2018-07-22T05:45:28.360Z,35.47
2018-07-22T05:47:57.109Z,41.33
2018-07-22T05:50:25.860Z,33.17
2018-07-22T05:52:54.484Z,60.87
2018-07-22T05:55:23.284Z,31.77
2018-07-22T05:57:52.221Z,30.50
2018-07-22T06:00:20.886Z,35.33
2018-07-22T06:02:49.604Z,39.73
2018-07-22T06:05:18.318Z,41.20
2018-07-22T06:07:46.985Z,39.60
2018-07-22T06:10:15.766Z,36.80
2018-07-22T06:12:44.419Z,32.10
2018-07-22T06:15:13.130Z,25.60
2018-07-22T06:17:41.801Z,26.80
2018-07-22T06:20:10.541Z,48.10
2018-07-22T06:22:39.289Z,36.00
2018-07-22T06:25:08.580Z,27.57
2018-07-22T06:27:37.348Z,26.87
2018-07-22T06:30:06.995Z,28.20
2018-07-22T06:32:35.792Z,35.50
2018-07-22T06:35:05.048Z,23.43
2018-07-22T06:37:33.980Z,26.97
2018-07-22T06:40:02.710Z,26.30
2018-07-22T06:42:31.557Z,22.73
2018-07-22T06:45:00.362Z,23.80
2018-07-22T06:47:29.050Z,25.77
2018-07-22T06:49:57.791Z,21.50
2018-07-22T06:52:26.600Z,36.43
2018-07-22T06:54:55.285Z,30.03
2018-07-22T06:57:24.191Z,19.50
2018-07-22T06:59:53.111Z,26.47
2018-07-22T07:02:22.000Z,28.60
2018-07-22T07:04:51.270Z,25.23
2018-07-22T07:07:20.026Z,19.37
2018-07-22T07:09:49.083Z,21.30
2018-07-22T07:12:17.869Z,29.77
2018-07-22T07:14:46.544Z,20.63
2018-07-22T07:17:15.201Z,23.40
2018-07-22T07:19:44.078Z,27.67
2018-07-22T07:22:12.752Z,17.97
2018-07-22T07:24:41.503Z,19.90
2018-07-22T07:27:10.389Z,20.63
2018-07-22T07:29:39.527Z,18.23
2018-07-22T07:32:08.405Z,26.20
2018-07-22T07:34:37.216Z,21.67
2018-07-22T07:37:06.536Z,17.27
2018-07-22T07:39:35.420Z,16.53
2018-07-22T07:42:04.159Z,15.97
2018-07-22T07:44:32.923Z,18.30
2018-07-22T07:47:01.729Z,16.70
2018-07-22T07:49:30.424Z,14.23
2018-07-22T07:51:59.138Z,14.37
2018-07-22T07:54:27.887Z,20.53
2018-07-22T07:56:56.565Z,14.87
2018-07-22T07:59:25.247Z,16.60
2018-07-22T08:01:54.234Z,18.77
2018-07-22T08:04:22.862Z,13.67
2018-07-22T08:06:51.791Z,13.20
2018-07-22T08:09:20.514Z,21.97
2018-07-22T08:11:49.314Z,22.47
2018-07-22T08:14:17.988Z,17.37
2018-07-22T08:16:46.648Z,17.07
2018-07-22T08:19:15.497Z,12.13
2018-07-22T08:21:44.234Z,14.37
2018-07-22T08:24:12.987Z,15.73
2018-07-22T08:26:41.713Z,14.03
2018-07-22T08:29:32.155Z,10.93
2018-07-22T08:32:01.683Z,20.97
2018-07-22T08:34:30.432Z,10.60
2018-07-22T08:36:59.355Z,10.20
2018-07-22T08:39:29.268Z,9.73
2018-07-22T08:41:58.519Z,7.70
2018-07-22T08:44:27.324Z,10.93
2018-07-22T08:46:56.396Z,7.63
2018-07-22T08:49:25.212Z,7.93
2018-07-22T08:51:53.934Z,7.60
2018-07-22T08:54:22.762Z,6.60
2018-07-22T08:56:51.388Z,7.10
2018-07-22T08:59:20.304Z,8.20
2018-07-22T09:01:49.209Z,28.83
2018-07-22T09:04:17.992Z,7.47
2018-07-22T09:06:46.768Z,6.60
2018-07-22T09:09:15.537Z,8.47
2018-07-22T09:11:44.299Z,7.90
2018-07-22T09:14:13.113Z,7.87
2018-07-22T09:16:41.927Z,7.60
2018-07-22T09:19:10.753Z,6.33
2018-07-22T09:21:39.520Z,9.00
2018-07-22T09:24:08.273Z,7.03
2018-07-22T09:26:37.005Z,7.63
2018-07-22T09:29:05.829Z,7.17
2018-07-22T09:31:34.847Z,18.63
2018-07-22T09:34:03.570Z,6.10
2018-07-22T09:36:32.355Z,6.03
2018-07-22T09:39:01.016Z,6.33
2018-07-22T09:41:29.853Z,6.50
2018-07-22T09:43:58.560Z,8.90
2018-07-22T09:46:27.289Z,6.20
2018-07-22T09:48:56.103Z,20.17
2018-07-22T09:51:24.767Z,6.63
2018-07-22T09:53:53.415Z,7.33
2018-07-22T09:56:22.190Z,6.73
2018-07-22T09:58:50.900Z,6.60
2018-07-22T10:01:19.612Z,5.20
2018-07-22T10:03:48.192Z,6.50
2018-07-22T10:06:18.180Z,7.07
2018-07-22T10:08:47.901Z,21.40
2018-07-22T10:11:16.831Z,6.40
2018-07-22T10:13:45.463Z,27.43
2018-07-22T10:16:14.345Z,5.93
2018-07-22T10:18:43.067Z,6.93
2018-07-22T10:21:11.846Z,7.50
2018-07-22T10:23:40.440Z,10.73
2018-07-22T10:26:09.225Z,6.93
2018-07-22T10:28:37.822Z,6.23
2018-07-22T10:31:06.647Z,6.20
2018-07-22T10:33:35.460Z,9.50
2018-07-22T10:36:04.134Z,8.30
2018-07-22T10:38:32.825Z,8.57
2018-07-22T10:41:01.736Z,7.40
2018-07-22T10:43:30.409Z,6.37
2018-07-22T10:45:59.046Z,7.20
2018-07-22T10:48:27.859Z,6.00
2018-07-22T10:50:56.615Z,7.93
2018-07-22T10:53:25.243Z,12.27
2018-07-22T10:55:53.950Z,6.93
2018-07-22T10:58:22.718Z,6.57
2018-07-22T11:00:51.342Z,6.63
2018-07-22T11:03:20.181Z,7.97
2018-07-22T11:05:48.883Z,8.63
2018-07-22T11:08:18.046Z,8.00
2018-07-22T11:10:46.670Z,6.57
2018-07-22T11:13:15.310Z,8.80
2018-07-22T11:15:44.024Z,11.13
2018-07-22T11:18:12.764Z,7.93
2018-07-22T11:20:41.408Z,7.57
2018-07-22T11:23:10.233Z,6.20
2018-07-22T11:25:38.903Z,7.80
2018-07-22T11:28:07.713Z,7.40
2018-07-22T11:30:36.376Z,6.87
2018-07-22T11:33:05.200Z,6.90
2018-07-22T11:35:34.260Z,8.30
2018-07-22T11:38:03.010Z,7.83
2018-07-22T11:40:31.770Z,6.00
2018-07-22T11:43:00.572Z,6.40
2018-07-22T11:45:29.351Z,8.60
2018-07-22T11:47:57.970Z,8.30
2018-07-22T11:50:26.848Z,11.77
2018-07-22T11:52:55.469Z,6.60
2018-07-22T11:55:24.181Z,6.97
2018-07-22T11:57:53.085Z,7.40
2018-07-22T12:00:21.838Z,8.10
2018-07-22T12:02:50.638Z,8.60
2018-07-22T12:05:19.454Z,7.37
2018-07-22T12:07:48.124Z,12.50
2018-07-22T12:10:16.672Z,6.10
2018-07-22T12:12:45.426Z,6.90
2018-07-22T12:15:16.214Z,6.60
2018-07-22T12:17:44.844Z,6.20
2018-07-22T12:20:13.500Z,6.17
2018-07-22T12:22:42.291Z,11.23
2018-07-22T12:25:11.299Z,8.57
2018-07-22T12:27:40.034Z,6.70
2018-07-22T12:30:08.756Z,5.43
2018-07-22T12:32:37.520Z,7.43
2018-07-22T12:35:06.594Z,8.43
2018-07-22T12:37:35.330Z,6.80
2018-07-22T12:40:04.181Z,7.40
2018-07-22T12:42:32.922Z,7.57
2018-07-22T12:45:01.551Z,6.33
2018-07-22T12:47:30.260Z,7.40
2018-07-22T12:49:58.859Z,8.10
2018-07-22T12:52:27.646Z,7.87
2018-07-22T12:54:56.291Z,5.83
2018-07-22T12:57:24.933Z,6.00
2018-07-22T12:59:53.783Z,7.37
2018-07-22T13:02:22.482Z,5.97
2018-07-22T13:04:51.223Z,6.23
2018-07-22T13:07:20.014Z,6.80
2018-07-22T13:09:48.920Z,7.43
2018-07-22T13:12:17.658Z,6.10
2018-07-22T13:14:46.400Z,11.57
2018-07-22T13:17:15.068Z,6.73
2018-07-22T13:19:43.844Z,6.60
2018-07-22T13:22:12.680Z,7.77
2018-07-22T13:24:41.488Z,7.07
2018-07-22T13:27:10.572Z,7.10
2018-07-22T13:29:39.511Z,6.83
2018-07-22T13:32:08.133Z,6.40
2018-07-22T13:34:36.898Z,7.13
2018-07-22T13:37:05.969Z,5.37
2018-07-22T13:39:34.773Z,6.30
2018-07-22T13:42:03.503Z,6.77
2018-07-22T13:44:32.280Z,5.87
2018-07-22T13:47:01.010Z,7.27
2018-07-22T13:49:29.812Z,6.00
2018-07-22T13:51:58.566Z,6.30
2018-07-22T13:54:27.807Z,6.30
2018-07-22T13:56:56.486Z,7.00
2018-07-22T13:59:25.170Z,6.20
2018-07-22T14:01:54.017Z,7.50
2018-07-22T14:04:22.841Z,6.00
2018-07-22T14:06:51.579Z,5.97
2018-07-22T14:09:20.371Z,6.97
2018-07-22T14:11:49.365Z,7.17
2018-07-22T14:14:18.077Z,6.87
2018-07-22T14:16:46.798Z,6.70
2018-07-22T14:19:15.620Z,6.00
2018-07-22T14:21:44.282Z,6.37
2018-07-22T14:24:13.255Z,6.57
2018-07-22T14:26:41.880Z,7.23
2018-07-22T14:29:10.638Z,6.20
2018-07-22T14:31:39.380Z,6.03
2018-07-22T14:34:08.162Z,5.77
2018-07-22T14:36:36.880Z,6.83
2018-07-22T14:39:09.249Z,5.67
2018-07-22T14:41:38.005Z,6.37
2018-07-22T14:44:06.749Z,6.20
2018-07-22T14:46:35.450Z,6.80
2018-07-22T14:49:04.159Z,6.33
2018-07-22T14:51:32.915Z,5.10
2018-07-22T14:54:02.197Z,6.40
2018-07-22T14:56:30.955Z,7.30
2018-07-22T14:58:59.708Z,6.13
2018-07-22T15:01:28.438Z,6.50
2018-07-22T15:03:57.140Z,6.10
2018-07-22T15:06:25.710Z,5.80
2018-07-22T15:08:54.410Z,7.90
2018-07-22T15:11:24.249Z,6.73
2018-07-22T15:13:53.019Z,6.87
2018-07-22T15:16:21.609Z,6.30
2018-07-22T15:18:50.408Z,5.83
2018-07-22T15:21:19.017Z,5.77
2018-07-22T15:23:47.708Z,6.30
2018-07-22T15:26:16.348Z,6.37
2018-07-22T15:28:45.014Z,9.27
2018-07-22T15:31:13.729Z,7.00
2018-07-22T15:33:42.503Z,7.40
2018-07-22T15:36:11.243Z,6.60
2018-07-22T15:38:40.001Z,8.00
2018-07-22T15:41:08.611Z,7.70
2018-07-22T15:43:37.444Z,8.33
2018-07-22T15:46:06.153Z,7.90
2018-07-22T15:48:34.822Z,6.80
2018-07-22T15:51:03.535Z,20.47
2018-07-22T15:53:32.228Z,13.87
2018-07-22T15:56:00.992Z,7.40
2018-07-22T15:58:29.741Z,8.13
2018-07-22T16:00:58.545Z,6.07
2018-07-22T16:03:27.249Z,7.53
2018-07-22T16:05:55.974Z,12.57
2018-07-22T16:08:24.588Z,8.83
2018-07-22T16:10:53.252Z,8.43
2018-07-22T16:13:21.958Z,7.97
2018-07-22T16:15:50.672Z,7.40
2018-07-22T16:18:19.833Z,9.00
2018-07-22T16:20:48.601Z,6.57
2018-07-22T16:23:17.431Z,7.20
2018-07-22T16:25:46.204Z,8.60
2018-07-22T16:28:15.010Z,12.13
2018-07-22T16:30:43.750Z,6.03
2018-07-22T16:33:12.401Z,8.77
2018-07-22T16:35:41.080Z,6.63
2018-07-22T16:38:09.845Z,8.70
2018-07-22T16:40:38.629Z,7.00
2018-07-22T16:43:07.487Z,8.87
2018-07-22T16:45:36.391Z,7.67
2018-07-22T16:48:05.184Z,7.70
2018-07-22T16:50:33.886Z,8.67
2018-07-22T16:53:02.668Z,8.23
2018-07-22T16:55:31.557Z,7.27
2018-07-22T16:58:00.397Z,8.70
2018-07-22T17:00:29.078Z,7.60
2018-07-22T17:02:57.832Z,6.83
2018-07-22T17:05:26.664Z,7.63
2018-07-22T17:07:55.418Z,10.33
2018-07-22T17:10:24.264Z,7.33
2018-07-22T17:12:53.360Z,6.80
2018-07-22T17:15:22.151Z,6.17
2018-07-22T17:17:50.928Z,7.33
2018-07-22T17:20:19.723Z,7.40
2018-07-22T17:22:48.372Z,7.33
2018-07-22T17:25:17.498Z,7.63
2018-07-22T17:27:46.230Z,7.87
2018-07-22T17:30:14.944Z,11.67
2018-07-22T17:32:43.731Z,8.03
2018-07-22T17:35:12.480Z,6.90
2018-07-22T17:37:41.205Z,7.13
2018-07-22T17:40:10.420Z,8.10
2018-07-22T17:42:39.044Z,10.87
2018-07-22T17:45:07.809Z,6.47
2018-07-22T17:47:36.519Z,14.00
2018-07-22T17:50:05.464Z,7.97
2018-07-22T17:52:34.154Z,7.60
2018-07-22T17:55:02.871Z,7.97
2018-07-22T17:57:31.477Z,10.47
2018-07-22T18:00:00.346Z,7.87
2018-07-22T18:02:29.106Z,8.00
2018-07-22T18:04:57.798Z,8.40
2018-07-22T18:07:28.892Z,7.30
2018-07-22T18:09:57.652Z,8.13
2018-07-22T18:12:26.388Z,18.90
2018-07-22T18:14:55.124Z,7.67
2018-07-22T18:17:23.745Z,7.93
2018-07-22T18:19:53.610Z,8.47
2018-07-22T18:22:22.424Z,6.87
2018-07-22T18:24:51.202Z,8.27
2018-07-22T18:27:19.829Z,6.90
2018-07-22T18:29:48.669Z,7.40
2018-07-22T18:32:17.411Z,7.10
2018-07-22T18:34:46.162Z,13.13
2018-07-22T18:37:15.078Z,8.27
2018-07-22T18:39:43.832Z,7.13
2018-07-22T18:42:13.182Z,7.53
2018-07-22T18:44:42.042Z,7.73
2018-07-22T18:47:10.822Z,7.33
2018-07-22T18:49:39.501Z,7.10
2018-07-22T18:52:08.373Z,5.90
2018-07-22T18:54:37.220Z,8.70
2018-07-22T18:57:06.010Z,6.47
2018-07-22T18:59:34.704Z,5.73
2018-07-22T19:02:03.459Z,8.03
2018-07-22T19:04:32.217Z,7.13
2018-07-22T19:07:00.921Z,6.10
2018-07-22T19:09:29.644Z,6.80
2018-07-22T19:11:58.374Z,7.23
2018-07-22T19:14:26.966Z,8.47
2018-07-22T19:16:55.684Z,6.87
2018-07-22T19:19:24.464Z,12.70
2018-07-22T19:21:53.068Z,7.80
2018-07-22T19:24:21.757Z,8.10
2018-07-22T19:26:50.433Z,6.67
2018-07-22T19:29:19.008Z,7.93
2018-07-22T19:31:47.685Z,7.80
2018-07-22T19:34:16.327Z,8.77
2018-07-22T19:36:44.946Z,13.90
2018-07-22T19:39:13.528Z,8.47
2018-07-22T19:41:42.409Z,7.10
2018-07-22T19:44:11.198Z,7.30
2018-07-22T19:46:39.863Z,7.00
2018-07-22T19:49:08.597Z,7.97
2018-07-22T19:51:37.447Z,6.57
2018-07-22T19:54:06.187Z,7.73
2018-07-22T19:56:35.231Z,7.83
2018-07-22T19:59:03.892Z,7.20
2018-07-22T20:01:36.821Z,8.43
2018-07-22T20:04:05.549Z,8.60
2018-07-22T20:06:34.328Z,8.13
2018-07-22T20:09:03.403Z,7.00
2018-07-22T20:11:32.107Z,7.13
2018-07-22T20:14:00.778Z,6.97
2018-07-22T20:16:29.474Z,6.33
2018-07-22T20:18:58.167Z,9.03
2018-07-22T20:21:26.865Z,6.70
2018-07-22T20:23:55.680Z,7.67
2018-07-22T20:26:24.438Z,7.50
2018-07-22T20:28:53.137Z,7.10
2018-07-22T20:31:21.734Z,7.77
2018-07-22T20:33:50.592Z,7.77
2018-07-22T20:36:19.404Z,10.97
2018-07-22T20:38:48.191Z,9.63
2018-07-22T20:41:17.120Z,7.70
2018-07-22T20:43:45.764Z,9.37
2018-07-22T20:46:14.425Z,7.20
2018-07-22T20:48:43.219Z,6.77
2018-07-22T20:51:12.005Z,8.23
2018-07-22T20:53:40.681Z,7.53
2018-07-22T20:56:09.510Z,8.77
2018-07-22T20:58:42.018Z,27.37
2018-07-22T21:01:10.695Z,8.00
2018-07-22T21:03:39.478Z,7.50
2018-07-22T21:06:08.201Z,8.40
2018-07-22T21:08:36.782Z,8.00
2018-07-22T21:11:05.545Z,9.20
2018-07-22T21:13:34.346Z,8.57
2018-07-22T21:16:03.019Z,9.43
2018-07-22T21:18:31.776Z,11.90
2018-07-22T21:21:00.558Z,10.83
2018-07-22T21:23:29.281Z,14.03
2018-07-22T21:25:58.072Z,10.50
2018-07-22T21:28:26.824Z,10.67
2018-07-22T21:30:55.532Z,12.00
2018-07-22T21:33:24.365Z,12.87
2018-07-22T21:35:53.014Z,14.27
2018-07-22T21:38:21.747Z,19.47
2018-07-22T21:40:50.516Z,12.13
2018-07-22T21:43:19.254Z,11.37
2018-07-22T21:45:47.884Z,10.10
2018-07-22T21:48:16.526Z,20.43
2018-07-22T21:50:45.159Z,10.80
2018-07-22T21:53:13.818Z,12.40
2018-07-22T21:55:42.545Z,11.37
2018-07-22T21:58:11.182Z,15.47
2018-07-22T22:00:44.243Z,16.83
2018-07-22T22:03:13.036Z,12.20
2018-07-22T22:05:41.630Z,12.77
2018-07-22T22:08:10.371Z,11.37
2018-07-22T22:10:39.044Z,12.83
2018-07-22T22:13:07.826Z,14.53
2018-07-22T22:15:36.544Z,13.43
2018-07-22T22:18:05.828Z,14.50
2018-07-22T22:20:34.571Z,9.97
2018-07-22T22:23:03.235Z,13.20
2018-07-22T22:25:32.045Z,12.27
2018-07-22T22:28:00.792Z,12.23
2018-07-22T22:30:29.626Z,11.67
2018-07-22T22:32:58.395Z,10.70
2018-07-22T22:35:27.054Z,10.90
2018-07-22T22:37:55.752Z,12.47
2018-07-22T22:40:24.470Z,21.63
2018-07-22T22:42:53.162Z,16.30
2018-07-22T22:45:21.920Z,11.50
2018-07-22T22:47:50.601Z,13.03
2018-07-22T22:50:19.245Z,11.57
2018-07-22T22:52:47.985Z,14.43
2018-07-22T22:55:16.552Z,14.07
2018-07-22T22:57:56.286Z,12.10
2018-07-22T23:00:24.860Z,23.20
2018-07-22T23:02:53.591Z,13.27
2018-07-22T23:05:22.369Z,13.37
2018-07-22T23:07:51.066Z,14.93
2018-07-22T23:10:19.652Z,14.30
2018-07-22T23:12:48.495Z,12.93
2018-07-22T23:15:17.228Z,14.10
2018-07-22T23:17:46.000Z,14.03
2018-07-22T23:20:14.786Z,14.80
2018-07-22T23:22:43.340Z,17.23
2018-07-22T23:25:12.140Z,22.40
2018-07-22T23:27:41.034Z,15.73
2018-07-22T23:30:09.764Z,13.53
2018-07-22T23:32:38.451Z,22.30
2018-07-22T23:35:07.158Z,14.50
2018-07-22T23:37:36.020Z,14.80
2018-07-22T23:40:04.772Z,15.73
2018-07-22T23:42:33.478Z,15.60
2018-07-22T23:45:02.179Z,14.77
2018-07-22T23:47:30.762Z,15.87
2018-07-22T23:50:00.178Z,15.73
2018-07-22T23:52:29.172Z,15.97
2018-07-22T23:54:57.857Z,18.87
2018-07-22T23:57:26.502Z,18.77
2018-07-22T23:59:55.355Z,17.50
